createdAt,value
2019-02-17T00:00:42.488Z,35.47
2019-02-17T00:03:11.849Z,34.47
2019-02-17T00:05:41.196Z,38.87
2019-02-17T00:08:10.578Z,40.93
2019-02-17T00:10:40.421Z,38.93
2019-02-17T00:13:09.800Z,34.43
2019-02-17T00:15:39.162Z,39.30
2019-02-17T00:18:08.587Z,37.37
2019-02-17T00:20:37.981Z,40.17
2019-02-17T00:23:07.377Z,36.97
2019-02-17T00:25:36.776Z,37.33
2019-02-17T00:28:06.269Z,49.27
2019-02-17T00:30:35.639Z,31.33
2019-02-17T00:33:05.113Z,37.37
2019-02-17T00:35:34.503Z,43.63
2019-02-17T00:38:03.795Z,57.50
2019-02-17T00:40:33.145Z,33.57
2019-02-17T00:43:02.531Z,38.57
2019-02-17T00:45:31.942Z,40.87
2019-02-17T00:48:01.298Z,43.63
2019-02-17T00:50:30.631Z,30.17
2019-02-17T00:53:00.011Z,24.03
2019-02-17T00:55:29.356Z,23.70
2019-02-17T00:57:58.732Z,26.20
2019-02-17T01:00:28.095Z,25.47
2019-02-17T01:02:57.469Z,23.53
2019-02-17T01:05:26.840Z,24.57
2019-02-17T01:07:56.173Z,24.97
2019-02-17T01:10:25.524Z,26.50
2019-02-17T01:12:54.904Z,29.03
2019-02-17T01:15:24.249Z,26.40
2019-02-17T01:17:53.653Z,24.50
2019-02-17T01:20:22.989Z,29.67
2019-02-17T01:22:52.335Z,38.20
2019-02-17T01:25:21.636Z,26.80
2019-02-17T01:27:51.476Z,32.77
2019-02-17T01:30:21.209Z,39.83
2019-02-17T01:32:50.614Z,40.83
2019-02-17T01:35:19.977Z,34.27
2019-02-17T01:37:49.307Z,34.47
2019-02-17T01:40:18.690Z,29.50
2019-02-17T01:42:48.064Z,27.87
2019-02-17T01:45:17.427Z,29.53
2019-02-17T01:47:46.787Z,25.97
2019-02-17T01:50:16.227Z,25.40
2019-02-17T01:52:45.594Z,24.93
2019-02-17T01:55:14.943Z,38.47
2019-02-17T01:57:44.649Z,116.10
2019-02-17T02:00:14.544Z,50.07
2019-02-17T02:02:43.892Z,38.13
2019-02-17T02:05:13.375Z,30.10
2019-02-17T02:07:42.747Z,25.47
2019-02-17T02:10:12.191Z,25.47
2019-02-17T02:12:41.559Z,24.67
2019-02-17T02:15:11.302Z,25.73
2019-02-17T02:17:40.642Z,25.50
2019-02-17T02:20:11.023Z,25.87
2019-02-17T02:22:40.394Z,26.17
2019-02-17T02:25:09.757Z,26.93
2019-02-17T02:27:39.099Z,25.43
2019-02-17T02:30:10.155Z,26.47
2019-02-17T02:32:39.531Z,24.93
2019-02-17T02:35:09.069Z,26.53
2019-02-17T02:37:38.435Z,25.97
2019-02-17T02:40:07.826Z,24.93
2019-02-17T02:42:37.704Z,24.53
2019-02-17T02:45:07.733Z,24.70
2019-02-17T02:47:37.131Z,26.07
2019-02-17T02:50:06.807Z,25.30
2019-02-17T02:52:36.163Z,27.80
2019-02-17T02:55:05.854Z,26.80
2019-02-17T02:57:35.252Z,25.73
2019-02-17T03:00:05.585Z,27.17
2019-02-17T03:02:34.948Z,26.30
2019-02-17T03:05:04.993Z,26.40
2019-02-17T03:07:34.347Z,28.67
2019-02-17T03:10:03.811Z,26.80
2019-02-17T03:12:33.158Z,28.10
2019-02-17T03:15:02.571Z,27.27
2019-02-17T03:17:31.915Z,26.90
2019-02-17T03:20:01.243Z,26.33
2019-02-17T03:22:30.689Z,26.77
2019-02-17T03:24:59.877Z,26.77
2019-02-17T03:27:29.148Z,27.13
2019-02-17T03:30:04.997Z,26.53
2019-02-17T03:32:29.488Z,26.17
2019-02-17T03:34:58.832Z,25.53
2019-02-17T03:37:28.177Z,25.93
2019-02-17T03:39:57.533Z,27.00
2019-02-17T03:42:27.180Z,27.73
2019-02-17T03:44:56.622Z,28.33
2019-02-17T03:47:25.960Z,31.27
2019-02-17T03:49:55.281Z,26.60
2019-02-17T03:52:24.597Z,25.83
2019-02-17T03:54:53.976Z,26.57
2019-02-17T03:57:23.610Z,26.27
2019-02-17T03:59:52.953Z,26.80
2019-02-17T04:02:22.306Z,27.73
2019-02-17T04:04:51.643Z,27.67
2019-02-17T04:07:21.132Z,29.83
2019-02-17T04:09:50.582Z,27.93
2019-02-17T04:12:20.471Z,30.73
2019-02-17T04:14:49.820Z,26.47
2019-02-17T04:17:19.078Z,27.00
2019-02-17T04:19:48.348Z,26.40
2019-02-17T04:22:17.689Z,26.90
2019-02-17T04:24:47.049Z,25.83
2019-02-17T04:27:16.401Z,26.80
2019-02-17T04:29:45.672Z,27.50
2019-02-17T04:32:14.947Z,29.27
2019-02-17T04:34:44.309Z,28.87
2019-02-17T04:37:13.644Z,28.50
2019-02-17T04:39:42.920Z,32.27
2019-02-17T04:42:12.207Z,28.13
2019-02-17T04:44:41.539Z,27.43
2019-02-17T04:47:10.865Z,27.23
2019-02-17T04:49:40.395Z,26.63
2019-02-17T04:52:09.741Z,26.37
2019-02-17T04:54:39.089Z,25.03
2019-02-17T04:57:08.427Z,24.93
2019-02-17T04:59:37.815Z,24.80
2019-02-17T05:02:07.154Z,26.37
2019-02-17T05:04:36.508Z,24.53
2019-02-17T05:07:05.900Z,24.33
2019-02-17T05:09:35.448Z,24.20
2019-02-17T05:12:04.813Z,24.07
2019-02-17T05:14:34.137Z,24.40
2019-02-17T05:17:03.474Z,24.60
2019-02-17T05:19:32.825Z,24.63
2019-02-17T05:22:02.188Z,25.07
2019-02-17T05:24:31.535Z,25.47
2019-02-17T05:27:00.891Z,25.13
2019-02-17T05:29:30.238Z,22.93
2019-02-17T05:31:59.619Z,25.20
2019-02-17T05:34:28.875Z,25.77
2019-02-17T05:36:58.227Z,26.53
2019-02-17T05:39:27.572Z,25.60
2019-02-17T05:41:56.910Z,26.70
2019-02-17T05:44:26.265Z,27.67
2019-02-17T05:46:55.586Z,27.87
2019-02-17T05:49:24.938Z,25.57
2019-02-17T05:51:54.803Z,25.43
2019-02-17T05:54:24.165Z,26.83
2019-02-17T05:56:53.547Z,26.50
2019-02-17T05:59:22.896Z,25.20
2019-02-17T06:01:52.240Z,25.33
2019-02-17T06:04:21.531Z,27.70
2019-02-17T06:06:50.888Z,51.00
2019-02-17T06:09:20.231Z,24.83
2019-02-17T06:11:49.588Z,21.97
2019-02-17T06:14:19.000Z,22.60
2019-02-17T06:16:48.603Z,22.70
2019-02-17T06:19:17.992Z,21.53
2019-02-17T06:21:47.261Z,23.90
2019-02-17T06:24:16.643Z,22.23
2019-02-17T06:26:45.981Z,23.47
2019-02-17T06:29:15.246Z,23.93
2019-02-17T06:31:44.628Z,24.00
2019-02-17T06:34:13.971Z,22.93
2019-02-17T06:36:43.307Z,25.10
2019-02-17T06:39:12.681Z,24.20
2019-02-17T06:41:42.042Z,24.93
2019-02-17T06:44:11.394Z,26.87
2019-02-17T06:46:45.482Z,31.57
2019-02-17T06:49:14.839Z,37.40
2019-02-17T06:51:44.232Z,35.67
2019-02-17T06:54:13.583Z,35.70
2019-02-17T06:56:52.930Z,32.13
2019-02-17T06:59:22.297Z,37.30
2019-02-17T07:01:51.660Z,29.03
2019-02-17T07:04:25.115Z,38.97
2019-02-17T07:06:59.021Z,31.77
2019-02-17T07:09:28.398Z,28.77
2019-02-17T07:11:57.765Z,26.20
2019-02-17T07:14:27.097Z,39.73
2019-02-17T07:16:56.469Z,35.23
2019-02-17T07:19:25.832Z,27.80
2019-02-17T07:21:55.200Z,29.07
2019-02-17T07:24:24.478Z,23.70
2019-02-17T07:26:53.861Z,25.83
2019-02-17T07:29:23.209Z,24.80
2019-02-17T07:31:52.547Z,23.37
2019-02-17T07:34:21.940Z,25.70
2019-02-17T07:36:51.328Z,23.07
2019-02-17T07:39:20.911Z,23.77
2019-02-17T07:41:50.319Z,30.33
2019-02-17T07:44:19.680Z,28.53
2019-02-17T07:46:49.055Z,26.77
2019-02-17T07:49:18.377Z,25.53
2019-02-17T07:51:47.729Z,26.90
2019-02-17T07:54:17.138Z,27.60
2019-02-17T07:56:48.405Z,25.57
2019-02-17T07:59:17.529Z,24.07
2019-02-17T08:01:46.963Z,21.37
2019-02-17T08:04:16.318Z,23.13
2019-02-17T08:06:47.744Z,28.07
2019-02-17T08:09:17.167Z,35.03
2019-02-17T08:11:47.010Z,30.00
2019-02-17T08:14:17.473Z,31.93
2019-02-17T08:16:49.169Z,23.43
2019-02-17T08:19:18.546Z,20.60
2019-02-17T08:21:49.118Z,27.60
2019-02-17T08:24:18.494Z,20.67
2019-02-17T08:26:47.856Z,20.83
2019-02-17T08:29:18.369Z,24.50
2019-02-17T08:31:55.496Z,22.53
2019-02-17T08:34:18.742Z,20.73
2019-02-17T08:36:48.164Z,22.63
2019-02-17T08:39:18.202Z,27.60
2019-02-17T08:41:47.573Z,35.07
2019-02-17T08:44:16.949Z,36.60
2019-02-17T08:46:46.319Z,32.13
2019-02-17T08:49:15.691Z,19.93
2019-02-17T08:51:45.683Z,23.83
2019-02-17T08:54:15.081Z,24.10
2019-02-17T08:56:44.446Z,25.37
2019-02-17T08:59:13.858Z,24.17
2019-02-17T09:01:43.215Z,19.77
2019-02-17T09:04:12.580Z,22.63
2019-02-17T09:06:41.946Z,26.13
2019-02-17T09:09:11.314Z,23.40
2019-02-17T09:11:41.588Z,21.60
2019-02-17T09:14:10.973Z,18.37
2019-02-17T09:16:40.656Z,20.87
2019-02-17T09:19:10.084Z,21.80
2019-02-17T09:21:39.491Z,23.83
2019-02-17T09:24:08.921Z,19.13
2019-02-17T09:26:38.289Z,19.97
2019-02-17T09:29:07.728Z,20.20
2019-02-17T09:31:37.357Z,22.73
2019-02-17T09:34:06.777Z,20.33
2019-02-17T09:36:36.172Z,21.87
2019-02-17T09:39:08.992Z,17.70
2019-02-17T09:41:38.425Z,17.90
2019-02-17T09:44:07.841Z,15.73
2019-02-17T09:46:37.216Z,22.97
2019-02-17T09:49:06.605Z,22.23
2019-02-17T09:51:36.631Z,18.70
2019-02-17T09:54:06.331Z,19.23
2019-02-17T09:56:35.750Z,17.53
2019-02-17T09:59:05.129Z,18.70
2019-02-17T10:01:34.506Z,17.53
2019-02-17T10:04:03.939Z,18.70
2019-02-17T10:06:34.137Z,16.83
2019-02-17T10:09:04.477Z,17.13
2019-02-17T10:11:33.845Z,20.37
2019-02-17T10:14:03.270Z,17.73
2019-02-17T10:16:32.641Z,18.63
2019-02-17T10:19:02.263Z,18.77
2019-02-17T10:21:31.888Z,16.83
2019-02-17T10:24:01.262Z,23.50
2019-02-17T10:26:31.382Z,20.40
2019-02-17T10:29:00.822Z,16.77
2019-02-17T10:31:30.112Z,17.37
2019-02-17T10:33:59.479Z,17.47
2019-02-17T10:36:28.881Z,17.67
2019-02-17T10:38:58.591Z,15.63
2019-02-17T10:41:27.967Z,16.43
2019-02-17T10:43:57.343Z,15.70
2019-02-17T10:46:26.696Z,14.97
2019-02-17T10:48:56.172Z,15.40
2019-02-17T10:51:26.518Z,17.30
2019-02-17T10:53:56.010Z,17.47
2019-02-17T10:56:25.375Z,15.97
2019-02-17T10:58:54.773Z,16.93
2019-02-17T11:01:24.160Z,18.73
2019-02-17T11:04:08.408Z,22.40
2019-02-17T11:06:37.852Z,27.73
2019-02-17T11:09:22.345Z,19.40
2019-02-17T11:11:51.999Z,18.97
2019-02-17T11:14:28.853Z,19.30
2019-02-17T11:16:58.719Z,19.37
2019-02-17T11:19:28.084Z,18.60
2019-02-17T11:21:57.491Z,26.03
2019-02-17T11:24:27.089Z,25.87
2019-02-17T11:26:56.469Z,32.57
2019-02-17T11:29:26.291Z,22.83
2019-02-17T11:31:55.693Z,23.50
2019-02-17T11:34:25.129Z,23.67
2019-02-17T11:36:54.498Z,19.93
2019-02-17T11:39:23.875Z,21.90
2019-02-17T11:41:53.270Z,24.73
2019-02-17T11:44:22.655Z,20.57
2019-02-17T11:46:52.078Z,21.27
2019-02-17T11:49:21.488Z,23.27
2019-02-17T11:51:50.911Z,19.67
2019-02-17T11:54:20.300Z,20.63
2019-02-17T11:56:50.016Z,27.90
2019-02-17T11:59:20.416Z,23.10
2019-02-17T12:01:49.835Z,19.77
2019-02-17T12:04:19.263Z,32.50
2019-02-17T12:06:48.948Z,23.37
2019-02-17T12:09:18.304Z,20.70
2019-02-17T12:11:47.984Z,19.90
2019-02-17T12:14:17.330Z,18.97
2019-02-17T12:16:47.180Z,19.67
2019-02-17T12:19:16.544Z,27.47
2019-02-17T12:21:53.580Z,37.57
2019-02-17T12:24:26.916Z,19.37
2019-02-17T12:27:19.583Z,18.83
2019-02-17T12:29:52.479Z,20.10
2019-02-17T12:32:25.461Z,30.77
2019-02-17T12:34:54.922Z,19.33
2019-02-17T12:37:24.305Z,21.23
2019-02-17T12:39:53.726Z,32.03
2019-02-17T12:42:23.581Z,32.17
2019-02-17T12:44:52.932Z,27.47
2019-02-17T12:47:23.195Z,26.73
2019-02-17T12:49:53.234Z,37.00
2019-02-17T12:52:22.614Z,28.23
2019-02-17T12:54:51.952Z,23.73
2019-02-17T12:57:21.421Z,18.50
2019-02-17T12:59:50.796Z,35.87
2019-02-17T13:02:22.783Z,28.93
2019-02-17T13:04:52.213Z,30.23
2019-02-17T13:07:21.615Z,19.37
2019-02-17T13:09:50.993Z,19.17
2019-02-17T13:12:20.367Z,21.50
2019-02-17T13:14:49.804Z,32.23
2019-02-17T13:17:22.768Z,21.70
2019-02-17T13:19:52.132Z,21.37
2019-02-17T13:22:21.542Z,22.40
2019-02-17T13:24:50.919Z,19.33
2019-02-17T13:27:20.290Z,20.33
2019-02-17T13:29:49.664Z,22.53
2019-02-17T13:32:19.089Z,23.90
2019-02-17T13:34:48.530Z,20.07
2019-02-17T13:37:17.926Z,20.37
2019-02-17T13:39:47.362Z,33.23
2019-02-17T13:42:19.694Z,25.87
2019-02-17T13:44:49.120Z,27.23
2019-02-17T13:47:18.534Z,26.70
2019-02-17T13:49:48.472Z,20.33
2019-02-17T13:52:17.866Z,25.00
2019-02-17T13:54:47.386Z,29.83
2019-02-17T13:57:16.803Z,34.57
2019-02-17T13:59:46.714Z,33.33
2019-02-17T14:02:16.111Z,39.33
2019-02-17T14:04:45.491Z,28.93
2019-02-17T14:07:14.926Z,31.23
2019-02-17T14:09:44.732Z,31.57
2019-02-17T14:12:14.613Z,23.93
2019-02-17T14:14:46.100Z,33.97
2019-02-17T14:17:15.854Z,33.67
2019-02-17T14:19:46.478Z,47.60
2019-02-17T14:22:15.898Z,46.20
2019-02-17T14:24:45.279Z,39.60
2019-02-17T14:27:14.648Z,47.90
2019-02-17T14:29:46.386Z,35.37
2019-02-17T14:32:15.834Z,44.83
2019-02-17T14:34:45.196Z,32.87
2019-02-17T14:37:15.043Z,29.70
2019-02-17T14:39:44.535Z,24.17
2019-02-17T14:42:13.953Z,27.63
2019-02-17T14:44:43.352Z,60.23
2019-02-17T14:47:12.772Z,57.40
2019-02-17T14:49:42.155Z,35.33
2019-02-17T14:52:11.576Z,36.63
2019-02-17T14:54:41.830Z,30.40
2019-02-17T14:57:11.227Z,53.03
2019-02-17T14:59:40.883Z,55.70
2019-02-17T15:02:10.262Z,44.97
2019-02-17T15:04:39.707Z,36.47
2019-02-17T15:07:09.091Z,37.17
2019-02-17T15:09:38.519Z,32.90
2019-02-17T15:12:07.927Z,48.90
2019-02-17T15:14:37.478Z,40.30
2019-02-17T15:17:07.458Z,45.73
2019-02-17T15:19:36.756Z,29.07
2019-02-17T15:22:06.174Z,32.20
2019-02-17T15:24:35.786Z,32.40
2019-02-17T15:27:05.220Z,39.07
2019-02-17T15:29:34.616Z,58.23
2019-02-17T15:32:06.370Z,70.27
2019-02-17T15:34:35.772Z,100.07
2019-02-17T15:37:05.207Z,65.27
2019-02-17T15:39:36.885Z,56.47
2019-02-17T15:42:06.334Z,61.83
2019-02-17T15:44:35.752Z,56.00
2019-02-17T15:47:05.153Z,55.27
2019-02-17T15:49:34.541Z,53.27
2019-02-17T15:52:04.480Z,62.27
2019-02-17T15:54:33.889Z,104.23
2019-02-17T15:57:03.338Z,73.30
2019-02-17T15:59:33.002Z,69.80
2019-02-17T16:02:02.407Z,79.33
2019-02-17T16:04:31.816Z,83.73
2019-02-17T16:07:01.735Z,141.00
2019-02-17T16:09:34.273Z,188.83
2019-02-17T16:12:04.541Z,124.97
2019-02-17T16:14:33.923Z,120.03
2019-02-17T16:17:03.312Z,132.70
2019-02-17T16:19:32.716Z,154.30
2019-02-17T16:22:04.153Z,136.03
2019-02-17T16:24:33.830Z,128.17
2019-02-17T16:27:03.190Z,167.10
2019-02-17T16:29:32.605Z,214.57
2019-02-17T16:32:02.004Z,110.33
2019-02-17T16:34:38.079Z,112.83
2019-02-17T16:37:04.184Z,124.13
2019-02-17T16:39:33.874Z,92.10
2019-02-17T16:42:03.421Z,97.87
2019-02-17T16:44:32.772Z,87.80
2019-02-17T16:47:02.141Z,111.03
2019-02-17T16:49:31.526Z,190.87
2019-02-17T16:52:00.935Z,152.07
2019-02-17T16:54:30.299Z,138.07
2019-02-17T16:56:59.691Z,118.37
2019-02-17T16:59:29.126Z,126.03
2019-02-17T17:01:58.494Z,234.13
2019-02-17T17:04:28.280Z,257.93
2019-02-17T17:06:57.656Z,383.00
2019-02-17T17:09:27.058Z,618.23
2019-02-17T17:11:56.485Z,573.93
2019-02-17T17:14:25.933Z,506.37
2019-02-17T17:16:55.293Z,523.40
2019-02-17T17:19:24.708Z,232.97
2019-02-17T17:21:54.151Z,246.17
2019-02-17T17:24:23.972Z,267.77
2019-02-17T17:26:53.509Z,283.50
2019-02-17T17:29:22.883Z,152.73
2019-02-17T17:31:52.297Z,168.70
2019-02-17T17:34:22.854Z,100.47
2019-02-17T17:36:52.236Z,138.57
2019-02-17T17:39:22.084Z,133.67
2019-02-17T17:41:51.621Z,304.37
2019-02-17T17:44:21.062Z,218.60
2019-02-17T17:46:50.458Z,169.93
2019-02-17T17:49:19.966Z,157.73
2019-02-17T17:51:49.376Z,172.23
2019-02-17T17:54:20.858Z,188.30
2019-02-17T17:56:50.312Z,338.80
2019-02-17T17:59:21.780Z,335.67
2019-02-17T18:01:51.714Z,201.63
2019-02-17T18:04:21.169Z,175.90
2019-02-17T18:06:50.635Z,289.17
2019-02-17T18:09:20.043Z,220.50
2019-02-17T18:11:49.458Z,181.07
2019-02-17T18:14:19.387Z,161.70
2019-02-17T18:16:48.794Z,108.73
2019-02-17T18:19:18.278Z,98.90
2019-02-17T18:21:48.062Z,98.87
2019-02-17T18:24:17.709Z,138.23
2019-02-17T18:26:47.242Z,143.93
2019-02-17T18:29:16.783Z,270.97
2019-02-17T18:31:46.739Z,612.37
2019-02-17T18:34:16.494Z,617.77
2019-02-17T18:36:45.953Z,325.10
2019-02-17T18:39:15.356Z,407.93
2019-02-17T18:41:44.857Z,487.43
2019-02-17T18:44:14.537Z,421.53
2019-02-17T18:46:43.981Z,173.00
2019-02-17T18:49:14.552Z,156.40
2019-02-17T18:51:44.193Z,130.90
2019-02-17T18:54:13.598Z,167.70
2019-02-17T18:56:43.012Z,187.17
2019-02-17T18:59:12.461Z,180.53
2019-02-17T19:01:42.147Z,179.27
2019-02-17T19:04:11.624Z,352.80
2019-02-17T19:06:40.998Z,322.73
2019-02-17T19:09:10.478Z,335.47
2019-02-17T19:11:40.394Z,271.77
2019-02-17T19:14:09.868Z,468.03
2019-02-17T19:16:39.258Z,239.17
2019-02-17T19:19:08.704Z,253.03
2019-02-17T19:21:38.158Z,234.53
2019-02-17T19:24:07.555Z,171.40
2019-02-17T19:26:37.814Z,110.60
2019-02-17T19:29:09.504Z,93.73
2019-02-17T19:31:38.904Z,109.90
2019-02-17T19:34:10.842Z,129.33
2019-02-17T19:36:40.614Z,90.07
2019-02-17T19:39:10.110Z,81.83
2019-02-17T19:41:39.540Z,256.40
2019-02-17T19:44:09.184Z,122.10
2019-02-17T19:46:38.592Z,109.23
2019-02-17T19:49:08.191Z,110.17
2019-02-17T19:51:38.360Z,267.47
2019-02-17T19:54:07.760Z,574.57
2019-02-17T19:56:39.814Z,308.03
2019-02-17T19:59:09.732Z,373.90
2019-02-17T20:01:39.174Z,197.13
2019-02-17T20:04:30.346Z,126.83
2019-02-17T20:07:00.026Z,99.13
2019-02-17T20:09:29.475Z,94.53
2019-02-17T20:11:59.236Z,111.67
2019-02-17T20:14:28.682Z,151.33
2019-02-17T20:16:58.439Z,112.90
2019-02-17T20:19:27.819Z,81.63
2019-02-17T20:21:57.214Z,131.57
2019-02-17T20:24:26.843Z,102.13
2019-02-17T20:26:56.213Z,117.17
2019-02-17T20:29:26.101Z,65.03
2019-02-17T20:31:55.573Z,70.40
2019-02-17T20:34:25.266Z,76.60
2019-02-17T20:36:54.930Z,69.13
2019-02-17T20:39:24.374Z,67.77
2019-02-17T20:41:53.756Z,71.70
2019-02-17T20:44:24.345Z,65.77
2019-02-17T20:46:54.064Z,65.67
2019-02-17T20:49:23.506Z,66.33
2019-02-17T20:51:52.900Z,60.73
2019-02-17T20:54:22.292Z,63.00
2019-02-17T20:56:51.683Z,69.90
2019-02-17T20:59:21.231Z,75.10
2019-02-17T21:01:52.876Z,76.87
2019-02-17T21:04:22.302Z,81.77
2019-02-17T21:06:51.718Z,55.03
2019-02-17T21:09:21.137Z,48.67
2019-02-17T21:11:50.854Z,63.40
2019-02-17T21:14:20.635Z,88.63
2019-02-17T21:16:50.550Z,115.67
2019-02-17T21:19:19.977Z,120.13
2019-02-17T21:21:49.460Z,115.50
2019-02-17T21:24:18.865Z,125.93
2019-02-17T21:26:48.758Z,123.10
2019-02-17T21:29:18.241Z,133.43
2019-02-17T21:31:47.609Z,127.97
2019-02-17T21:34:17.127Z,108.90
2019-02-17T21:36:46.640Z,102.00
2019-02-17T21:39:16.104Z,115.10
2019-02-17T21:41:45.478Z,128.63
2019-02-17T21:44:16.747Z,119.00
2019-02-17T21:46:46.120Z,112.60
2019-02-17T21:49:15.603Z,114.77
2019-02-17T21:51:44.994Z,103.37
2019-02-17T21:54:14.671Z,85.57
2019-02-17T21:56:44.237Z,129.00
2019-02-17T21:59:16.217Z,202.50
2019-02-17T22:01:45.618Z,109.77
2019-02-17T22:04:15.026Z,187.80
2019-02-17T22:06:44.489Z,132.77
2019-02-17T22:09:14.444Z,98.23
2019-02-17T22:11:43.836Z,53.13
2019-02-17T22:14:13.544Z,76.50
2019-02-17T22:16:42.943Z,68.53
2019-02-17T22:19:12.309Z,53.70
2019-02-17T22:21:41.755Z,54.40
2019-02-17T22:24:11.128Z,52.63
2019-02-17T22:26:40.508Z,57.03
2019-02-17T22:29:09.848Z,90.53
2019-02-17T22:31:39.241Z,297.67
2019-02-17T22:34:08.633Z,252.63
2019-02-17T22:36:43.830Z,126.73
2019-02-17T22:39:09.162Z,98.37
2019-02-17T22:41:38.868Z,110.30
2019-02-17T22:44:08.396Z,83.87
2019-02-17T22:46:37.887Z,42.43
2019-02-17T22:49:07.245Z,40.50
2019-02-17T22:51:36.633Z,40.50
2019-02-17T22:54:05.983Z,40.83
2019-02-17T22:56:35.613Z,44.80
2019-02-17T22:59:05.048Z,46.50
2019-02-17T23:01:35.105Z,44.47
2019-02-17T23:04:04.475Z,51.57
2019-02-17T23:06:33.845Z,67.87
2019-02-17T23:09:03.270Z,49.33
2019-02-17T23:11:32.646Z,77.00
2019-02-17T23:14:04.232Z,67.10
2019-02-17T23:16:33.314Z,58.83
2019-02-17T23:19:02.724Z,64.30
2019-02-17T23:21:32.061Z,57.03
2019-02-17T23:24:01.424Z,63.37
2019-02-17T23:26:30.853Z,49.70
2019-02-17T23:29:00.264Z,53.00
2019-02-17T23:31:30.038Z,42.80
2019-02-17T23:34:00.229Z,36.53
2019-02-17T23:36:29.556Z,38.17
2019-02-17T23:38:59.141Z,38.17
2019-02-17T23:41:28.479Z,37.30
2019-02-17T23:43:57.836Z,36.37
2019-02-17T23:46:27.192Z,38.17
2019-02-17T23:48:56.468Z,36.77
2019-02-17T23:51:25.831Z,38.17
2019-02-17T23:53:55.185Z,43.03
2019-02-17T23:56:24.552Z,44.50
2019-02-17T23:58:53.914Z,38.57
